Terminal Aerodrome Forecast
Issued by NWS St Louis, MO

Home | Current Version | Previous Version | Graphics & Text | Print | Product List | Glossary On
Versions: 1 2 3 4 5 6 7 8 9 10 11 12 13 14 15 16 17 18 19 20 21 22 23 24 25 26 27 28 29 30
000
FTUS43 KLSX 250500
TAFSTL
TAF
KSTL 250530Z 2506/2612 14010KT P6SM BKN020 OVC080
     FM250900 15011KT P6SM -SHRA VCTS OVC007CB
     FM251400 14010KT P6SM OVC012
     FM251800 15007KT P6SM VCTS BKN020CB
     FM252000 04009KT 5SM -RA BR OVC012
     FM260600 01012KT P6SM OVC012=

USA.gov is the U.S. government's official web portal to all federal, state and local government web resources and services.